sensor_id;sensor_type;location;lat;lon;timestamp;pressure;altitude;pressure_sealevel;temperature;humidity
11038;BME280;5572;49.540;11.932;2023-08-06T00:01:14;94114.81;;;15.72;100.00
11038;BME280;5572;49.540;11.932;2023-08-06T00:03:41;94111.34;;;15.79;100.00
11038;BME280;5572;49.540;11.932;2023-08-06T00:06:08;94104.38;;;15.85;100.00
11038;BME280;5572;49.540;11.932;2023-08-06T00:08:34;94101.25;;;15.83;100.00
11038;BME280;5572;49.540;11.932;2023-08-06T00:11:02;94086.06;;;15.82;100.00
11038;BME280;5572;49.540;11.932;2023-08-06T00:13:29;94091.84;;;15.73;100.00
11038;BME280;5572;49.540;11.932;2023-08-06T00:15:55;94102.38;;;15.71;100.00
11038;BME280;5572;49.540;11.932;2023-08-06T00:18:22;94107.84;;;15.75;100.00
11038;BME280;5572;49.540;11.932;2023-08-06T00:20:49;94089.56;;;15.82;100.00
11038;BME280;5572;49.540;11.932;2023-08-06T00:23:15;94103.91;;;15.69;100.00
11038;BME280;5572;49.540;11.932;2023-08-06T00:25:43;94109.75;;;15.74;100.00
11038;BME280;5572;49.540;11.932;2023-08-06T00:28:11;94110.47;;;15.64;100.00
11038;BME280;5572;49.540;11.932;2023-08-06T00:30:37;94118.22;;;15.59;100.00
11038;BME280;5572;49.540;11.932;2023-08-06T00:33:04;94119.75;;;15.53;100.00
11038;BME280;5572;49.540;11.932;2023-08-06T00:35:31;94101.50;;;15.57;100.00
11038;BME280;5572;49.540;11.932;2023-08-06T00:37:57;94116.28;;;15.56;100.00
11038;BME280;5572;49.540;11.932;2023-08-06T00:40:24;94123.22;;;15.50;100.00
11038;BME280;5572;49.540;11.932;2023-08-06T00:42:50;94116.28;;;15.56;100.00
11038;BME280;5572;49.540;11.932;2023-08-06T00:45:18;94147.75;;;15.53;100.00
11038;BME280;5572;49.540;11.932;2023-08-06T00:47:45;94160.31;;;15.65;100.00
11038;BME280;5572;49.540;11.932;2023-08-06T00:50:12;94159.94;;;15.73;100.00
11038;BME280;5572;49.540;11.932;2023-08-06T00:52:40;94163.84;;;15.72;100.00
11038;BME280;5572;49.540;11.932;2023-08-06T00:55:07;94151.28;;;15.57;100.00
11038;BME280;5572;49.540;11.932;2023-08-06T00:57:35;94157.78;;;15.43;100.00
11038;BME280;5572;49.540;11.932;2023-08-06T01:00:02;94167.03;;;15.31;100.00
11038;BME280;5572;49.540;11.932;2023-08-06T01:02:31;94171.59;;;15.24;100.00
11038;BME280;5572;49.540;11.932;2023-08-06T01:04:57;94180.47;;;15.17;100.00
11038;BME280;5572;49.540;11.932;2023-08-06T01:07:33;94191.34;;;15.14;100.00
11038;BME280;5572;49.540;11.932;2023-08-06T01:10:19;94192.78;;;15.01;100.00
11038;BME280;5572;49.540;11.932;2023-08-06T01:12:54;94197.84;;;15.02;100.00
11038;BME280;5572;49.540;11.932;2023-08-06T01:15:28;94180.06;;;15.12;100.00
11038;BME280;5572;49.540;11.932;2023-08-06T01:17:57;94144.59;;;15.05;100.00
11038;BME280;5572;49.540;11.932;2023-08-06T01:20:28;94156.63;;;15.00;100.00
11038;BME280;5572;49.540;11.932;2023-08-06T01:22:55;94152.03;;;15.08;100.00
11038;BME280;5572;49.540;11.932;2023-08-06T01:25:28;94149.28;;;15.04;100.00
11038;BME280;5572;49.540;11.932;2023-08-06T01:28:01;94148.44;;;14.97;100.00
11038;BME280;5572;49.540;11.932;2023-08-06T01:30:31;94138.75;;;15.03;100.00
11038;BME280;5572;49.540;11.932;2023-08-06T01:33:04;94131.47;;;14.70;100.00
11038;BME280;5572;49.540;11.932;2023-08-06T01:35:32;94132.03;;;14.86;100.00
11038;BME280;5572;49.540;11.932;2023-08-06T01:37:59;94114.50;;;14.84;100.00
11038;BME280;5572;49.540;11.932;2023-08-06T01:40:27;94127.41;;;14.94;100.00
11038;BME280;5572;49.540;11.932;2023-08-06T01:42:54;94110.81;;;15.09;100.00
11038;BME280;5572;49.540;11.932;2023-08-06T01:45:21;94121.31;;;15.07;100.00
11038;BME280;5572;49.540;11.932;2023-08-06T01:47:48;94106.94;;;15.10;100.00
11038;BME280;5572;49.540;11.932;2023-08-06T01:50:14;94112.81;;;15.12;100.00
11038;BME280;5572;49.540;11.932;2023-08-06T01:52:42;94109.59;;;15.00;100.00
11038;BME280;5572;49.540;11.932;2023-08-06T01:55:09;94123.22;;;15.03;100.00
11038;BME280;5572;49.540;11.932;2023-08-06T01:57:36;94112.78;;;15.09;100.00
11038;BME280;5572;49.540;11.932;2023-08-06T02:00:03;94122.44;;;15.03;100.00
11038;BME280;5572;49.540;11.932;2023-08-06T02:02:29;94115.06;;;15.03;100.00
11038;BME280;5572;49.540;11.932;2023-08-06T02:04:56;94103.75;;;14.98;100.00
11038;BME280;5572;49.540;11.932;2023-08-06T02:07:23;94114.56;;;14.91;100.00
11038;BME280;5572;49.540;11.932;2023-08-06T02:09:51;94088.56;;;14.93;100.00
11038;BME280;5572;49.540;11.932;2023-08-06T02:12:18;94096.66;;;14.86;100.00
11038;BME280;5572;49.540;11.932;2023-08-06T02:14:45;94093.63;;;14.98;100.00
11038;BME280;5572;49.540;11.932;2023-08-06T02:17:12;94086.22;;;14.92;100.00
11038;BME280;5572;49.540;11.932;2023-08-06T02:19:39;94085.88;;;15.00;100.00
11038;BME280;5572;49.540;11.932;2023-08-06T02:22:05;94077.66;;;14.90;100.00
11038;BME280;5572;49.540;11.932;2023-08-06T02:24:32;94060.16;;;14.91;100.00
11038;BME280;5572;49.540;11.932;2023-08-06T02:27:00;94059.03;;;14.92;100.00
11038;BME280;5572;49.540;11.932;2023-08-06T02:29:27;94047.81;;;15.04;100.00
11038;BME280;5572;49.540;11.932;2023-08-06T02:31:53;94052.09;;;15.05;100.00
11038;BME280;5572;49.540;11.932;2023-08-06T02:34:20;94051.31;;;15.01;100.00
11038;BME280;5572;49.540;11.932;2023-08-06T02:36:46;94045.88;;;15.04;100.00
11038;BME280;5572;49.540;11.932;2023-08-06T02:39:13;94046.50;;;14.87;100.00
11038;BME280;5572;49.540;11.932;2023-08-06T02:41:39;94042.28;;;14.90;100.00
11038;BME280;5572;49.540;11.932;2023-08-06T02:44:07;94032.91;;;14.87;100.00
11038;BME280;5572;49.540;11.932;2023-08-06T02:46:34;94027.81;;;14.79;100.00
11038;BME280;5572;49.540;11.932;2023-08-06T02:49:01;94030.06;;;14.70;100.00
11038;BME280;5572;49.540;11.932;2023-08-06T02:51:27;94032.88;;;14.80;100.00
11038;BME280;5572;49.540;11.932;2023-08-06T02:53:54;94045.38;;;14.88;100.00
11038;BME280;5572;49.540;11.932;2023-08-06T02:56:20;94046.44;;;14.77;100.00
11038;BME280;5572;49.540;11.932;2023-08-06T02:58:47;94046.84;;;14.75;100.00
11038;BME280;5572;49.540;11.932;2023-08-06T03:01:15;94049.56;;;14.79;100.00
11038;BME280;5572;49.540;11.932;2023-08-06T03:03:42;94037.88;;;14.75;100.00
11038;BME280;5572;49.540;11.932;2023-08-06T03:06:08;94026.16;;;14.67;100.00
11038;BME280;5572;49.540;11.932;2023-08-06T03:08:35;94019.47;;;14.58;100.00
11038;BME280;5572;49.540;11.932;2023-08-06T03:11:02;94015.97;;;14.58;100.00
11038;BME280;5572;49.540;11.932;2023-08-06T03:13:33;94019.03;;;14.53;100.00
11038;BME280;5572;49.540;11.932;2023-08-06T03:16:00;94016.47;;;14.70;100.00
11038;BME280;5572;49.540;11.932;2023-08-06T03:18:28;94011.31;;;14.58;100.00
11038;BME280;5572;49.540;11.932;2023-08-06T03:20:54;94016.41;;;14.63;100.00
11038;BME280;5572;49.540;11.932;2023-08-06T03:23:22;94014.91;;;14.69;100.00
11038;BME280;5572;49.540;11.932;2023-08-06T03:25:48;94008.63;;;14.62;100.00
11038;BME280;5572;49.540;11.932;2023-08-06T03:28:15;94000.00;;;14.49;100.00
11038;BME280;5572;49.540;11.932;2023-08-06T03:30:42;94008.19;;;14.56;100.00
11038;BME280;5572;49.540;11.932;2023-08-06T03:33:08;94010.44;;;14.44;100.00
11038;BME280;5572;49.540;11.932;2023-08-06T03:35:36;94000.34;;;14.48;100.00
11038;BME280;5572;49.540;11.932;2023-08-06T03:38:03;94027.06;;;14.39;100.00
11038;BME280;5572;49.540;11.932;2023-08-06T03:40:30;94022.50;;;14.50;100.00
11038;BME280;5572;49.540;11.932;2023-08-06T03:42:56;94022.09;;;14.48;100.00
11038;BME280;5572;49.540;11.932;2023-08-06T03:45:23;94014.03;;;14.55;100.00
11038;BME280;5572;49.540;11.932;2023-08-06T03:47:49;94010.88;;;14.49;100.00
11038;BME280;5572;49.540;11.932;2023-08-06T03:50:16;94019.44;;;14.51;100.00
11038;BME280;5572;49.540;11.932;2023-08-06T03:52:44;94024.44;;;14.46;100.00
11038;BME280;5572;49.540;11.932;2023-08-06T03:55:10;94024.13;;;14.58;100.00
11038;BME280;5572;49.540;11.932;2023-08-06T03:57:37;94032.56;;;14.42;100.00
11038;BME280;5572;49.540;11.932;2023-08-06T04:00:04;94038.75;;;14.43;100.00
11038;BME280;5572;49.540;11.932;2023-08-06T04:02:30;94040.72;;;14.42;100.00
11038;BME280;5572;49.540;11.932;2023-08-06T04:04:57;94027.63;;;14.55;100.00
11038;BME280;5572;49.540;11.932;2023-08-06T04:07:24;94026.28;;;14.38;100.00
11038;BME280;5572;49.540;11.932;2023-08-06T04:09:54;94026.22;;;14.31;100.00
11038;BME280;5572;49.540;11.932;2023-08-06T04:12:20;94030.81;;;14.24;100.00
11038;BME280;5572;49.540;11.932;2023-08-06T04:14:47;94030.56;;;14.39;100.00
11038;BME280;5572;49.540;11.932;2023-08-06T04:17:14;94042.59;;;14.38;100.00
11038;BME280;5572;49.540;11.932;2023-08-06T04:19:40;94038.69;;;14.36;100.00
11038;BME280;5572;49.540;11.932;2023-08-06T04:22:07;94056.59;;;14.40;100.00
11038;BME280;5572;49.540;11.932;2023-08-06T04:24:33;94050.31;;;14.33;100.00
11038;BME280;5572;49.540;11.932;2023-08-06T04:27:01;94074.00;;;14.32;100.00
11038;BME280;5572;49.540;11.932;2023-08-06T04:29:28;94065.47;;;14.34;100.00
11038;BME280;5572;49.540;11.932;2023-08-06T04:31:54;94049.03;;;14.23;100.00
11038;BME280;5572;49.540;11.932;2023-08-06T04:34:21;94033.97;;;14.29;100.00
11038;BME280;5572;49.540;11.932;2023-08-06T04:36:48;94051.81;;;14.27;100.00
11038;BME280;5572;49.540;11.932;2023-08-06T04:39:15;94051.03;;;14.30;100.00
11038;BME280;5572;49.540;11.932;2023-08-06T04:41:41;94086.81;;;14.35;100.00
11038;BME280;5572;49.540;11.932;2023-08-06T04:44:09;94102.34;;;14.35;100.00
11038;BME280;5572;49.540;11.932;2023-08-06T04:46:36;94114.81;;;14.39;100.00
11038;BME280;5572;49.540;11.932;2023-08-06T04:49:03;94135.44;;;14.44;100.00
11038;BME280;5572;49.540;11.932;2023-08-06T04:51:29;94150.22;;;14.46;100.00
11038;BME280;5572;49.540;11.932;2023-08-06T04:53:56;94155.59;;;14.39;100.00
11038;BME280;5572;49.540;11.932;2023-08-06T04:56:23;94151.78;;;14.47;100.00
11038;BME280;5572;49.540;11.932;2023-08-06T04:58:50;94148.66;;;14.45;100.00
11038;BME280;5572;49.540;11.932;2023-08-06T05:01:18;94155.69;;;14.50;100.00
11038;BME280;5572;49.540;11.932;2023-08-06T05:03:46;94148.25;;;14.43;100.00
11038;BME280;5572;49.540;11.932;2023-08-06T05:06:13;94137.50;;;14.54;100.00
11038;BME280;5572;49.540;11.932;2023-08-06T05:08:39;94140.28;;;14.61;100.00
11038;BME280;5572;49.540;11.932;2023-08-06T05:11:06;94138.41;;;14.64;100.00
11038;BME280;5572;49.540;11.932;2023-08-06T05:13:33;94140.25;;;14.57;100.00
11038;BME280;5572;49.540;11.932;2023-08-06T05:15:59;94147.00;;;14.70;100.00
11038;BME280;5572;49.540;11.932;2023-08-06T05:18:27;94140.81;;;14.73;100.00
11038;BME280;5572;49.540;11.932;2023-08-06T05:20:55;94135.88;;;14.82;100.00
11038;BME280;5572;49.540;11.932;2023-08-06T05:23:22;94139.38;;;14.86;100.00
11038;BME280;5572;49.540;11.932;2023-08-06T05:25:48;94127.41;;;14.94;100.00
11038;BME280;5572;49.540;11.932;2023-08-06T05:28:15;94126.91;;;14.81;100.00
11038;BME280;5572;49.540;11.932;2023-08-06T05:30:42;94111.81;;;14.87;100.00
11038;BME280;5572;49.540;11.932;2023-08-06T05:33:08;94102.91;;;14.90;100.00
11038;BME280;5572;49.540;11.932;2023-08-06T05:35:36;94089.28;;;14.87;100.00
11038;BME280;5572;49.540;11.932;2023-08-06T05:38:03;94076.97;;;15.03;100.00
11038;BME280;5572;49.540;11.932;2023-08-06T05:40:29;94070.03;;;15.13;100.00
11038;BME280;5572;49.540;11.932;2023-08-06T05:42:56;94054.13;;;15.15;100.00
11038;BME280;5572;49.540;11.932;2023-08-06T05:45:22;94061.50;;;15.14;100.00
11038;BME280;5572;49.540;11.932;2023-08-06T05:47:49;94033.06;;;15.08;100.00
11038;BME280;5572;49.540;11.932;2023-08-06T05:50:17;94043.78;;;15.31;100.00
11038;BME280;5572;49.540;11.932;2023-08-06T05:52:45;94034.50;;;15.39;100.00
11038;BME280;5572;49.540;11.932;2023-08-06T05:55:11;94017.78;;;15.44;100.00
11038;BME280;5572;49.540;11.932;2023-08-06T05:57:38;94015.84;;;15.44;100.00
11038;BME280;5572;49.540;11.932;2023-08-06T06:00:06;94003.00;;;15.41;100.00
11038;BME280;5572;49.540;11.932;2023-08-06T06:02:33;93992.06;;;15.34;100.00
11038;BME280;5572;49.540;11.932;2023-08-06T06:04:59;93970.69;;;15.36;100.00
11038;BME280;5572;49.540;11.932;2023-08-06T06:07:26;93964.47;;;15.39;100.00
11038;BME280;5572;49.540;11.932;2023-08-06T06:09:54;93944.66;;;15.39;100.00
11038;BME280;5572;49.540;11.932;2023-08-06T06:12:20;93913.22;;;15.55;100.00
11038;BME280;5572;49.540;11.932;2023-08-06T06:14:47;93892.59;;;15.54;100.00
11038;BME280;5572;49.540;11.932;2023-08-06T06:17:14;93896.53;;;15.67;100.00
11038;BME280;5572;49.540;11.932;2023-08-06T06:19:41;93857.66;;;15.84;100.00
11038;BME280;5572;49.540;11.932;2023-08-06T06:22:07;93843.22;;;15.76;100.00
11038;BME280;5572;49.540;11.932;2023-08-06T06:24:34;93822.22;;;15.91;100.00
11038;BME280;5572;49.540;11.932;2023-08-06T06:27:02;93800.81;;;15.96;100.00
11038;BME280;5572;49.540;11.932;2023-08-06T06:29:29;93762.66;;;16.21;100.00
11038;BME280;5572;49.540;11.932;2023-08-06T06:31:55;93750.22;;;16.30;100.00
11038;BME280;5572;49.540;11.932;2023-08-06T06:34:22;93736.16;;;16.35;100.00
11038;BME280;5572;49.540;11.932;2023-08-06T06:36:49;93726.03;;;16.29;100.00
11038;BME280;5572;49.540;11.932;2023-08-06T06:39:15;93696.03;;;16.46;100.00
11038;BME280;5572;49.540;11.932;2023-08-06T06:41:42;93699.56;;;16.36;100.00
11038;BME280;5572;49.540;11.932;2023-08-06T06:44:10;93679.31;;;16.34;100.00
11038;BME280;5572;49.540;11.932;2023-08-06T06:46:37;93669.19;;;16.41;100.00
11038;BME280;5572;49.540;11.932;2023-08-06T06:49:04;93654.72;;;16.51;100.00
11038;BME280;5572;49.540;11.932;2023-08-06T06:51:30;93628.50;;;16.71;100.00
11038;BME280;5572;49.540;11.932;2023-08-06T06:53:57;93600.88;;;17.23;100.00
11038;BME280;5572;49.540;11.932;2023-08-06T06:56:24;93572.63;;;17.43;100.00
11038;BME280;5572;49.540;11.932;2023-08-06T06:58:51;93578.78;;;17.04;100.00
11038;BME280;5572;49.540;11.932;2023-08-06T07:01:19;93525.53;;;17.69;100.00
11038;BME280;5572;49.540;11.932;2023-08-06T07:03:45;93523.81;;;17.82;100.00
11038;BME280;5572;49.540;11.932;2023-08-06T07:06:12;93424.16;;;19.18;100.00
11038;BME280;5572;49.540;11.932;2023-08-06T07:08:40;93452.03;;;18.64;100.00
11038;BME280;5572;49.540;11.932;2023-08-06T07:11:07;93424.00;;;19.02;100.00
11038;BME280;5572;49.540;11.932;2023-08-06T07:13:34;93478.44;;;18.21;100.00
11038;BME280;5572;49.540;11.932;2023-08-06T07:16:01;93446.09;;;18.16;100.00
11038;BME280;5572;49.540;11.932;2023-08-06T07:18:29;93427.88;;;18.07;100.00
11038;BME280;5572;49.540;11.932;2023-08-06T07:20:56;93413.22;;;18.20;100.00
11038;BME280;5572;49.540;11.932;2023-08-06T07:23:24;93380.59;;;18.59;100.00
11038;BME280;5572;49.540;11.932;2023-08-06T07:25:51;93401.47;;;17.93;100.00
11038;BME280;5572;49.540;11.932;2023-08-06T07:28:18;93413.09;;;18.01;100.00
11038;BME280;5572;49.540;11.932;2023-08-06T07:30:44;93381.06;;;18.54;100.00
11038;BME280;5572;49.540;11.932;2023-08-06T07:33:12;93409.66;;;18.49;100.00
11038;BME280;5572;49.540;11.932;2023-08-06T07:35:40;93367.91;;;18.91;100.00
11038;BME280;5572;49.540;11.932;2023-08-06T07:38:06;93390.84;;;18.97;100.00
11038;BME280;5572;49.540;11.932;2023-08-06T07:40:35;93349.72;;;19.43;100.00
11038;BME280;5572;49.540;11.932;2023-08-06T07:43:01;93465.97;;;18.17;100.00
11038;BME280;5572;49.540;11.932;2023-08-06T07:45:32;93417.09;;;18.95;100.00
11038;BME280;5572;49.540;11.932;2023-08-06T07:47:59;93445.78;;;18.87;100.00
11038;BME280;5572;49.540;11.932;2023-08-06T07:50:25;93451.59;;;19.15;100.00
11038;BME280;5572;49.540;11.932;2023-08-06T07:52:53;93477.81;;;19.78;100.00
11038;BME280;5572;49.540;11.932;2023-08-06T07:55:20;93579.91;;;18.87;100.00
11038;BME280;5572;49.540;11.932;2023-08-06T07:57:46;93672.34;;;17.62;100.00
11038;BME280;5572;49.540;11.932;2023-08-06T08:00:13;93626.88;;;18.18;100.00
11038;BME280;5572;49.540;11.932;2023-08-06T08:02:40;93646.13;;;17.68;100.00
11038;BME280;5572;49.540;11.932;2023-08-06T08:05:06;93615.63;;;18.13;100.00
11038;BME280;5572;49.540;11.932;2023-08-06T08:07:33;93584.78;;;18.76;100.00
11038;BME280;5572;49.540;11.932;2023-08-06T08:10:01;93493.91;;;19.95;100.00
11038;BME280;5572;49.540;11.932;2023-08-06T08:12:30;93538.06;;;19.81;100.00
11038;BME280;5572;49.540;11.932;2023-08-06T08:14:57;93602.19;;;19.41;100.00
11038;BME280;5572;49.540;11.932;2023-08-06T08:17:23;93615.91;;;19.15;100.00
11038;BME280;5572;49.540;11.932;2023-08-06T08:19:50;93678.59;;;18.06;100.00
11038;BME280;5572;49.540;11.932;2023-08-06T08:22:16;93685.66;;;18.04;100.00
11038;BME280;5572;49.540;11.932;2023-08-06T08:24:43;93728.06;;;17.14;100.00
11038;BME280;5572;49.540;11.932;2023-08-06T08:27:11;93733.47;;;17.24;100.00
11038;BME280;5572;49.540;11.932;2023-08-06T08:29:38;93724.41;;;17.41;100.00
11038;BME280;5572;49.540;11.932;2023-08-06T08:32:04;93679.25;;;18.17;100.00
11038;BME280;5572;49.540;11.932;2023-08-06T08:34:31;93699.69;;;18.06;100.00
11038;BME280;5572;49.540;11.932;2023-08-06T08:36:58;93703.75;;;18.31;100.00
11038;BME280;5572;49.540;11.932;2023-08-06T08:39:24;93647.59;;;19.88;100.00
11038;BME280;5572;49.540;11.932;2023-08-06T08:41:51;93708.13;;;20.00;100.00
11038;BME280;5572;49.540;11.932;2023-08-06T08:44:20;93741.34;;;19.80;100.00
11038;BME280;5572;49.540;11.932;2023-08-06T08:46:47;93806.97;;;20.20;100.00
11038;BME280;5572;49.540;11.932;2023-08-06T08:49:14;93880.81;;;20.34;100.00
11038;BME280;5572;49.540;11.932;2023-08-06T08:51:41;93907.97;;;19.95;100.00
11038;BME280;5572;49.540;11.932;2023-08-06T08:54:10;93956.22;;;19.59;100.00
11038;BME280;5572;49.540;11.932;2023-08-06T08:56:37;93996.22;;;19.09;100.00
11038;BME280;5572;49.540;11.932;2023-08-06T08:59:04;94022.78;;;18.58;100.00
11038;BME280;5572;49.540;11.932;2023-08-06T09:01:32;94036.69;;;18.85;100.00
11038;BME280;5572;49.540;11.932;2023-08-06T09:04:00;94038.59;;;19.42;100.00
11038;BME280;5572;49.540;11.932;2023-08-06T09:06:27;94035.28;;;19.61;100.00
11038;BME280;5572;49.540;11.932;2023-08-06T09:09:01;94071.63;;;18.67;100.00
11038;BME280;5572;49.540;11.932;2023-08-06T09:11:31;94086.69;;;18.24;100.00
11038;BME280;5572;49.540;11.932;2023-08-06T09:14:05;94079.19;;;18.38;100.00
11038;BME280;5572;49.540;11.932;2023-08-06T09:16:34;94050.34;;;18.88;100.00
11038;BME280;5572;49.540;11.932;2023-08-06T09:19:07;94050.53;;;19.21;100.00
11038;BME280;5572;49.540;11.932;2023-08-06T09:21:36;94023.97;;;19.92;100.00
11038;BME280;5572;49.540;11.932;2023-08-06T09:24:07;94025.53;;;20.30;100.00
11038;BME280;5572;49.540;11.932;2023-08-06T09:26:34;94050.56;;;19.98;100.00
11038;BME280;5572;49.540;11.932;2023-08-06T09:29:00;94072.34;;;19.76;100.00
11038;BME280;5572;49.540;11.932;2023-08-06T09:31:33;94073.84;;;20.50;100.00
11038;BME280;5572;49.540;11.932;2023-08-06T09:34:10;94101.72;;;20.82;100.00
11038;BME280;5572;49.540;11.932;2023-08-06T09:36:40;94196.19;;;19.67;100.00
11038;BME280;5572;49.540;11.932;2023-08-06T09:39:12;94103.06;;;20.97;100.00
11038;BME280;5572;49.540;11.932;2023-08-06T09:41:39;94118.66;;;20.74;100.00
11038;BME280;5572;49.540;11.932;2023-08-06T09:44:15;94161.66;;;20.17;100.00
11038;BME280;5572;49.540;11.932;2023-08-06T09:46:47;94204.31;;;19.81;100.00
11038;BME280;5572;49.540;11.932;2023-08-06T09:49:13;94233.94;;;19.93;100.00
11038;BME280;5572;49.540;11.932;2023-08-06T09:51:40;94252.09;;;19.80;100.00
11038;BME280;5572;49.540;11.932;2023-08-06T09:54:08;94275.13;;;19.89;100.00
11038;BME280;5572;49.540;11.932;2023-08-06T09:56:37;94278.84;;;20.60;100.00
11038;BME280;5572;49.540;11.932;2023-08-06T09:59:04;94328.56;;;20.25;100.00
11038;BME280;5572;49.540;11.932;2023-08-06T10:01:32;94330.88;;;20.78;100.00
11038;BME280;5572;49.540;11.932;2023-08-06T10:04:00;94401.44;;;19.58;100.00
11038;BME280;5572;49.540;11.932;2023-08-06T10:06:28;94414.00;;;17.89;100.00
11038;BME280;5572;49.540;11.932;2023-08-06T10:08:55;94366.94;;;17.24;100.00
11038;BME280;5572;49.540;11.932;2023-08-06T10:11:23;94263.59;;;17.40;100.00
11038;BME280;5572;49.540;11.932;2023-08-06T10:13:54;94212.47;;;17.33;100.00
11038;BME280;5572;49.540;11.932;2023-08-06T10:16:22;94148.50;;;17.31;100.00
11038;BME280;5572;49.540;11.932;2023-08-06T10:18:49;94138.31;;;16.93;100.00
11038;BME280;5572;49.540;11.932;2023-08-06T10:21:17;94073.56;;;17.63;100.00
11038;BME280;5572;49.540;11.932;2023-08-06T10:23:44;94081.00;;;17.42;100.00
11038;BME280;5572;49.540;11.932;2023-08-06T10:26:10;94063.44;;;17.19;100.00
11038;BME280;5572;49.540;11.932;2023-08-06T10:28:38;94023.56;;;17.80;100.00
11038;BME280;5572;49.540;11.932;2023-08-06T10:31:05;94005.22;;;17.67;100.00
11038;BME280;5572;49.540;11.932;2023-08-06T10:33:43;93995.88;;;17.71;100.00
11038;BME280;5572;49.540;11.932;2023-08-06T10:36:11;93960.78;;;18.41;100.00
11038;BME280;5572;49.540;11.932;2023-08-06T10:38:46;93904.53;;;19.61;100.00
11038;BME280;5572;49.540;11.932;2023-08-06T10:41:17;93957.16;;;19.46;100.00
11038;BME280;5572;49.540;11.932;2023-08-06T10:43:47;94049.72;;;18.67;100.00
11038;BME280;5572;49.540;11.932;2023-08-06T10:46:22;93988.41;;;19.52;100.00
11038;BME280;5572;49.540;11.932;2023-08-06T10:48:49;94024.16;;;19.78;100.00
11038;BME280;5572;49.540;11.932;2023-08-06T10:51:15;94019.13;;;20.40;100.00
11038;BME280;5572;49.540;11.932;2023-08-06T10:53:46;94032.88;;;21.19;100.00
11038;BME280;5572;49.540;11.932;2023-08-06T10:56:13;94168.31;;;19.21;100.00
11038;BME280;5572;49.540;11.932;2023-08-06T10:58:40;94204.69;;;18.26;100.00
11038;BME280;5572;49.540;11.932;2023-08-06T11:01:06;94197.63;;;18.25;100.00
11038;BME280;5572;49.540;11.932;2023-08-06T11:03:33;94156.56;;;18.42;100.00
11038;BME280;5572;49.540;11.932;2023-08-06T11:06:00;94152.34;;;18.03;100.00
11038;BME280;5572;49.540;11.932;2023-08-06T11:08:33;94172.72;;;17.36;100.00
11038;BME280;5572;49.540;11.932;2023-08-06T11:11:09;94166.09;;;17.61;100.00
11038;BME280;5572;49.540;11.932;2023-08-06T11:13:38;94194.09;;;17.17;100.00
11038;BME280;5572;49.540;11.932;2023-08-06T11:16:04;94174.28;;;17.40;100.00
11038;BME280;5572;49.540;11.932;2023-08-06T11:18:31;94165.28;;;17.78;100.00
11038;BME280;5572;49.540;11.932;2023-08-06T11:20:58;94196.50;;;17.63;100.00
11038;BME280;5572;49.540;11.932;2023-08-06T11:23:26;94124.75;;;19.85;100.00
11038;BME280;5572;49.540;11.932;2023-08-06T11:25:53;94164.84;;;20.15;100.00
11038;BME280;5572;49.540;11.932;2023-08-06T11:28:21;94213.66;;;20.31;100.00
11038;BME280;5572;49.540;11.932;2023-08-06T11:30:48;94292.56;;;19.55;100.00
11038;BME280;5572;49.540;11.932;2023-08-06T11:33:14;94360.88;;;19.04;100.00
11038;BME280;5572;49.540;11.932;2023-08-06T11:35:41;94350.94;;;19.56;100.00
11038;BME280;5572;49.540;11.932;2023-08-06T11:38:08;94386.50;;;19.66;100.00
11038;BME280;5572;49.540;11.932;2023-08-06T11:40:35;94379.84;;;20.35;100.00
11038;BME280;5572;49.540;11.932;2023-08-06T11:43:02;94438.31;;;19.33;100.00
11038;BME280;5572;49.540;11.932;2023-08-06T11:45:30;94452.81;;;18.99;100.00
11038;BME280;5572;49.540;11.932;2023-08-06T11:47:57;94481.09;;;17.69;100.00
11038;BME280;5572;49.540;11.932;2023-08-06T11:50:24;94432.88;;;17.26;100.00
11038;BME280;5572;49.540;11.932;2023-08-06T11:52:56;94310.16;;;17.99;100.00
11038;BME280;5572;49.540;11.932;2023-08-06T11:55:23;94281.19;;;17.63;100.00
11038;BME280;5572;49.540;11.932;2023-08-06T11:57:50;94261.72;;;17.68;100.00
11038;BME280;5572;49.540;11.932;2023-08-06T12:00:17;94203.91;;;18.29;100.00
11038;BME280;5572;49.540;11.932;2023-08-06T12:02:49;94155.56;;;19.52;100.00
11038;BME280;5572;49.540;11.932;2023-08-06T12:05:18;94233.75;;;19.70;100.00
11038;BME280;5572;49.540;11.932;2023-08-06T12:07:47;94246.31;;;20.95;100.00
11038;BME280;5572;49.540;11.932;2023-08-06T12:10:15;94342.19;;;20.83;100.00
11038;BME280;5572;49.540;11.932;2023-08-06T12:12:42;94417.81;;;20.44;100.00
11038;BME280;5572;49.540;11.932;2023-08-06T12:15:09;94473.03;;;19.74;100.00
11038;BME280;5572;49.540;11.932;2023-08-06T12:17:37;94454.66;;;20.50;100.00
11038;BME280;5572;49.540;11.932;2023-08-06T12:20:06;94507.03;;;20.04;100.00
11038;BME280;5572;49.540;11.932;2023-08-06T12:22:34;94447.09;;;21.52;100.00
11038;BME280;5572;49.540;11.932;2023-08-06T12:25:01;94554.13;;;19.58;100.00
11038;BME280;5572;49.540;11.932;2023-08-06T12:27:28;94528.44;;;20.34;100.00
11038;BME280;5572;49.540;11.932;2023-08-06T12:29:55;94520.94;;;21.09;100.00
11038;BME280;5572;49.540;11.932;2023-08-06T12:32:21;94588.56;;;19.97;100.00
11038;BME280;5572;49.540;11.932;2023-08-06T12:34:48;94604.66;;;19.18;100.00
11038;BME280;5572;49.540;11.932;2023-08-06T12:37:16;94587.84;;;19.51;100.00
11038;BME280;5572;49.540;11.932;2023-08-06T12:39:42;94572.88;;;19.84;100.00
11038;BME280;5572;49.540;11.932;2023-08-06T12:42:09;94556.34;;;20.15;100.00
11038;BME280;5572;49.540;11.932;2023-08-06T12:44:36;94575.63;;;20.86;100.00
11038;BME280;5572;49.540;11.932;2023-08-06T12:47:03;94636.75;;;19.98;100.00
11038;BME280;5572;49.540;11.932;2023-08-06T12:49:29;94661.81;;;20.07;100.00
11038;BME280;5572;49.540;11.932;2023-08-06T12:51:58;94683.34;;;19.28;100.00